Time;durP1;ratioP1;P1;durP2;ratioP2;P2;SDS_P1;SDS_P2;PMS_P1;PMS_P2;Temp;Humidity;BMP_temperature;BMP_pressure;BME280_temperature;BME280_humidity;BME280_pressure;Samples;Min_cycle;Max_cycle;Signal;HPM_P1;HPM_P2
2022/04/16 00:02:00;;;;;;;5.03;3.90;;;;;;;;;;5068973;28;20414;-81
2022/04/16 00:04:27;;;;;;;5.20;4.50;;;;;;;;;;5068880;28;20964;-81
2022/04/16 00:06:53;;;;;;;5.50;3.80;;;;;;;;;;5068237;28;20461;-81
2022/04/16 00:09:19;;;;;;;4.73;3.90;;;;;;;;;;5051847;28;20441;-81
2022/04/16 00:11:45;;;;;;;4.97;4.00;;;;;;;;;;5068488;28;20439;-80
2022/04/16 00:14:12;;;;;;;10.10;4.00;;;;;;;;;;5068770;28;20449;-80
2022/04/16 00:16:38;;;;;;;5.30;4.50;;;;;;;;;;5068439;28;20421;-80
2022/04/16 00:19:05;;;;;;;5.27;3.77;;;;;;;;;;5069279;28;20510;-80
2022/04/16 00:21:35;;;;;;;5.63;3.97;;;;;;;;;;5068714;28;20404;-80
2022/04/16 00:24:01;;;;;;;5.30;4.30;;;;;;;;;;5068701;28;20418;-79
2022/04/16 00:26:27;;;;;;;5.53;4.27;;;;;;;;;;5048835;28;20453;-79
2022/04/16 00:28:54;;;;;;;5.60;3.87;;;;;;;;;;5067622;28;20406;-79
2022/04/16 00:31:21;;;;;;;6.80;4.57;;;;;;;;;;5065173;28;20451;-80
2022/04/16 00:33:47;;;;;;;5.10;3.87;;;;;;;;;;5063227;28;20999;-80
2022/04/16 00:36:14;;;;;;;7.17;3.90;;;;;;;;;;5063405;28;20469;-81
2022/04/16 00:38:40;;;;;;;5.23;4.00;;;;;;;;;;5064568;28;20412;-80
2022/04/16 00:43:54;;;;;;;5.13;3.90;;;;;;;;;;5076736;28;20469;-83
2022/04/16 00:46:20;;;;;;;5.00;3.60;;;;;;;;;;5078048;28;20463;-83
2022/04/16 00:48:47;;;;;;;5.67;4.43;;;;;;;;;;5062237;28;20476;-83
2022/04/16 00:51:14;;;;;;;7.70;4.23;;;;;;;;;;5062031;28;20836;-83
2022/04/16 00:53:40;;;;;;;5.60;3.90;;;;;;;;;;5060381;28;20436;-83
2022/04/16 00:56:06;;;;;;;6.50;4.20;;;;;;;;;;5061998;28;20405;-83
2022/04/16 00:58:32;;;;;;;5.37;4.23;;;;;;;;;;5062002;28;20831;-83
2022/04/16 01:00:58;;;;;;;5.57;3.90;;;;;;;;;;5061560;28;20869;-83
2022/04/16 01:03:26;;;;;;;5.60;3.60;;;;;;;;;;5061846;28;20439;-83
2022/04/16 01:05:52;;;;;;;3.80;2.93;;;;;;;;;;5062114;28;20952;-83
2022/04/16 01:08:22;;;;;;;4.40;3.63;;;;;;;;;;5061277;28;20544;-83
2022/04/16 01:10:48;;;;;;;5.33;4.07;;;;;;;;;;5061086;28;20402;-83
2022/04/16 01:13:15;;;;;;;4.83;3.63;;;;;;;;;;5062117;28;20979;-83
2022/04/16 01:15:41;;;;;;;5.53;3.80;;;;;;;;;;5060375;28;20409;-83
2022/04/16 01:18:07;;;;;;;8.70;3.97;;;;;;;;;;5061134;28;20488;-83
2022/04/16 01:20:38;;;;;;;10.07;4.20;;;;;;;;;;5062307;28;20816;-83
2022/04/16 01:23:05;;;;;;;4.73;4.00;;;;;;;;;;5067437;28;20494;-83
2022/04/16 01:25:33;;;;;;;6.23;4.33;;;;;;;;;;5080971;28;20472;-83
2022/04/16 01:28:00;;;;;;;6.10;4.50;;;;;;;;;;5081914;28;20397;-83
2022/04/16 01:30:26;;;;;;;5.40;3.77;;;;;;;;;;5081271;28;20484;-83
2022/04/16 01:32:52;;;;;;;5.07;4.00;;;;;;;;;;5081834;28;20447;-83
2022/04/16 01:35:18;;;;;;;5.10;3.33;;;;;;;;;;5081690;28;20802;-83
2022/04/16 01:37:44;;;;;;;4.67;3.97;;;;;;;;;;5081714;28;20416;-83
2022/04/16 01:40:11;;;;;;;6.30;4.10;;;;;;;;;;5081613;28;20412;-83
2022/04/16 01:42:37;;;;;;;4.73;3.77;;;;;;;;;;5081271;28;20471;-83
2022/04/16 01:45:05;;;;;;;6.57;4.30;;;;;;;;;;5084480;28;20426;-84
2022/04/16 01:47:31;;;;;;;4.40;4.00;;;;;;;;;;5082414;28;20885;-84
2022/04/16 01:50:00;;;;;;;7.07;4.80;;;;;;;;;;5082456;28;20408;-84
2022/04/16 01:52:26;;;;;;;5.60;4.20;;;;;;;;;;5080861;28;20432;-83
2022/04/16 01:54:53;;;;;;;6.60;4.43;;;;;;;;;;5083959;28;20404;-83
2022/04/16 01:57:19;;;;;;;5.60;4.53;;;;;;;;;;5081367;28;20477;-84
2022/04/16 01:59:46;;;;;;;5.63;4.50;;;;;;;;;;5081250;28;20413;-83
2022/04/16 02:02:12;;;;;;;5.67;5.10;;;;;;;;;;5081287;28;20440;-83
2022/04/16 02:04:38;;;;;;;4.83;4.03;;;;;;;;;;5083738;28;20473;-81
2022/04/16 02:07:04;;;;;;;6.43;5.13;;;;;;;;;;5098104;28;20467;-82
2022/04/16 02:09:30;;;;;;;7.43;4.90;;;;;;;;;;5087134;28;20408;-82
2022/04/16 02:11:56;;;;;;;5.10;3.73;;;;;;;;;;5084791;28;20460;-83
2022/04/16 02:14:23;;;;;;;5.50;3.90;;;;;;;;;;5081542;28;20776;-83
2022/04/16 02:16:49;;;;;;;7.43;4.27;;;;;;;;;;5079941;28;20405;-83
2022/04/16 02:19:15;;;;;;;7.57;4.80;;;;;;;;;;5079123;28;20436;-83
2022/04/16 02:21:42;;;;;;;6.33;4.37;;;;;;;;;;5080664;28;20424;-83
2022/04/16 02:24:08;;;;;;;7.20;4.17;;;;;;;;;;5079787;28;20973;-83
2022/04/16 02:26:34;;;;;;;6.83;5.00;;;;;;;;;;5080541;28;20444;-83
2022/04/16 02:29:00;;;;;;;6.17;4.60;;;;;;;;;;5080490;28;20397;-83
2022/04/16 02:31:26;;;;;;;5.70;4.57;;;;;;;;;;5078631;28;20408;-83
2022/04/16 02:33:55;;;;;;;6.43;5.57;;;;;;;;;;5089865;28;20416;-83
2022/04/16 02:36:25;;;;;;;5.87;4.47;;;;;;;;;;5095610;28;20754;-83
2022/04/16 02:38:52;;;;;;;8.50;4.50;;;;;;;;;;5081266;28;20773;-83
2022/04/16 02:41:19;;;;;;;6.27;4.40;;;;;;;;;;5079483;28;20412;-83
2022/04/16 02:43:45;;;;;;;6.60;4.90;;;;;;;;;;5079919;28;20420;-83
2022/04/16 02:48:56;;;;;;;7.80;6.10;;;;;;;;;;5079458;28;20442;-83
2022/04/16 02:51:22;;;;;;;8.83;5.97;;;;;;;;;;5079844;28;20740;-83
2022/04/16 02:53:49;;;;;;;7.47;6.10;;;;;;;;;;5079989;28;20404;-83
2022/04/16 02:56:15;;;;;;;7.43;5.30;;;;;;;;;;5079732;28;20408;-84
2022/04/16 02:58:41;;;;;;;6.67;5.13;;;;;;;;;;5079752;28;20464;-83
2022/04/16 03:01:07;;;;;;;7.23;5.23;;;;;;;;;;5077734;28;20500;-83
2022/04/16 03:03:33;;;;;;;8.50;5.90;;;;;;;;;;5079815;28;20474;-83
2022/04/16 03:05:59;;;;;;;12.43;6.30;;;;;;;;;;5082466;28;20445;-83
2022/04/16 03:08:25;;;;;;;10.07;6.33;;;;;;;;;;5082392;28;20408;-84
2022/04/16 03:10:52;;;;;;;10.17;6.60;;;;;;;;;;5080333;28;20923;-83
2022/04/16 03:13:18;;;;;;;8.27;6.20;;;;;;;;;;5079696;28;20417;-83
2022/04/16 03:18:29;;;;;;;9.60;7.17;;;;;;;;;;5080528;28;20527;-83
2022/04/16 03:20:56;;;;;;;10.93;6.73;;;;;;;;;;5079805;28;20761;-83
2022/04/16 03:23:22;;;;;;;9.07;6.87;;;;;;;;;;5079584;28;20474;-83
2022/04/16 03:25:48;;;;;;;11.97;5.97;;;;;;;;;;5079079;28;20419;-83
2022/04/16 03:28:14;;;;;;;12.43;9.10;;;;;;;;;;5078556;28;20405;-83
2022/04/16 03:30:40;;;;;;;12.10;8.03;;;;;;;;;;5079061;28;20454;-83
2022/04/16 03:33:07;;;;;;;10.40;7.57;;;;;;;;;;5078003;28;20425;-83
2022/04/16 03:35:34;;;;;;;11.67;8.63;;;;;;;;;;5078914;28;20486;-83
2022/04/16 03:38:00;;;;;;;9.97;7.53;;;;;;;;;;5079070;28;20400;-83
2022/04/16 03:40:26;;;;;;;11.97;7.80;;;;;;;;;;5078601;28;20503;-83
2022/04/16 03:42:54;;;;;;;11.07;7.97;;;;;;;;;;5078158;28;20456;-83
2022/04/16 03:45:21;;;;;;;10.67;7.70;;;;;;;;;;5078740;28;20403;-83
2022/04/16 03:47:48;;;;;;;10.97;7.40;;;;;;;;;;5075972;28;20520;-83
2022/04/16 03:50:14;;;;;;;11.50;7.57;;;;;;;;;;5077649;28;20405;-83
2022/04/16 03:52:41;;;;;;;10.13;7.40;;;;;;;;;;5078600;28;20446;-83
2022/04/16 04:00:43;;;;;;;10.40;7.30;;;;;;;;;;5079498;28;20388;-83
2022/04/16 04:03:10;;;;;;;10.67;7.73;;;;;;;;;;5077995;28;20463;-83
2022/04/16 04:05:37;;;;;;;11.10;7.10;;;;;;;;;;5079038;28;20425;-83
2022/04/16 04:08:05;;;;;;;11.00;7.57;;;;;;;;;;5079116;28;20405;-83
2022/04/16 04:10:31;;;;;;;9.73;6.80;;;;;;;;;;5079127;28;20411;-83
2022/04/16 04:12:57;;;;;;;10.97;7.60;;;;;;;;;;5078512;28;20424;-83
2022/04/16 04:15:24;;;;;;;8.87;7.00;;;;;;;;;;5077584;28;20764;-83
2022/04/16 04:17:50;;;;;;;11.67;8.23;;;;;;;;;;5082221;28;20861;-84
2022/04/16 04:20:17;;;;;;;13.10;7.83;;;;;;;;;;5083378;28;20404;-83
2022/04/16 04:22:43;;;;;;;14.47;9.33;;;;;;;;;;5082910;28;20526;-83
2022/04/16 04:25:09;;;;;;;11.60;8.17;;;;;;;;;;5085639;28;20408;-80
2022/04/16 04:27:35;;;;;;;10.20;7.47;;;;;;;;;;5088948;28;20495;-83
2022/04/16 04:30:01;;;;;;;13.83;7.73;;;;;;;;;;5084711;28;20400;-83
2022/04/16 04:32:28;;;;;;;13.00;8.07;;;;;;;;;;5085156;28;20492;-83
2022/04/16 04:34:54;;;;;;;10.10;7.37;;;;;;;;;;5083701;28;20487;-83
2022/04/16 04:37:20;;;;;;;13.37;7.80;;;;;;;;;;5097172;28;20441;-81
2022/04/16 04:39:46;;;;;;;13.13;8.27;;;;;;;;;;5098378;28;20412;-82
2022/04/16 04:42:13;;;;;;;10.97;7.80;;;;;;;;;;5097393;28;20436;-81
2022/04/16 04:44:39;;;;;;;12.13;7.63;;;;;;;;;;5097656;28;20424;-82
2022/04/16 04:47:05;;;;;;;10.60;7.10;;;;;;;;;;5091710;28;20452;-83
2022/04/16 04:49:31;;;;;;;9.80;7.00;;;;;;;;;;5083883;28;20405;-83
2022/04/16 04:51:57;;;;;;;11.50;8.27;;;;;;;;;;5083231;28;20837;-83
2022/04/16 04:54:23;;;;;;;14.90;7.00;;;;;;;;;;5082516;28;20400;-83
2022/04/16 04:56:49;;;;;;;11.47;7.87;;;;;;;;;;5082693;28;20869;-82
2022/04/16 04:59:15;;;;;;;10.43;7.50;;;;;;;;;;5081683;28;20505;-83
2022/04/16 05:01:41;;;;;;;9.40;7.47;;;;;;;;;;5081693;28;20928;-83
2022/04/16 05:04:07;;;;;;;11.17;7.43;;;;;;;;;;5087207;28;20904;-82
2022/04/16 05:06:33;;;;;;;10.07;7.60;;;;;;;;;;5083999;28;20452;-83
2022/04/16 05:08:59;;;;;;;9.97;6.87;;;;;;;;;;5100204;28;20400;-81
2022/04/16 05:11:25;;;;;;;10.47;7.67;;;;;;;;;;5094866;28;20408;-83
2022/04/16 05:13:51;;;;;;;7.63;6.80;;;;;;;;;;5084416;28;20396;-83
2022/04/16 05:16:17;;;;;;;7.93;6.07;;;;;;;;;;5084366;28;20396;-83
2022/04/16 05:18:43;;;;;;;8.60;5.97;;;;;;;;;;5083638;28;20427;-83
2022/04/16 05:21:10;;;;;;;9.67;7.10;;;;;;;;;;5083232;28;20443;-83
2022/04/16 05:23:39;;;;;;;8.70;6.77;;;;;;;;;;5083736;28;20450;-83
2022/04/16 05:26:06;;;;;;;10.17;6.57;;;;;;;;;;5081694;28;20942;-83
2022/04/16 05:28:32;;;;;;;8.13;6.33;;;;;;;;;;5081832;28;20411;-83
2022/04/16 05:30:59;;;;;;;10.93;7.60;;;;;;;;;;5081129;28;20417;-83
2022/04/16 05:36:10;;;;;;;10.03;6.97;;;;;;;;;;5082432;28;20395;-84
2022/04/16 05:38:36;;;;;;;9.73;6.30;;;;;;;;;;5080618;28;20401;-84
2022/04/16 05:41:02;;;;;;;8.23;6.40;;;;;;;;;;5080674;28;20404;-84
2022/04/16 05:43:28;;;;;;;7.33;5.90;;;;;;;;;;5081539;28;20451;-84
2022/04/16 05:45:54;;;;;;;8.70;6.43;;;;;;;;;;5080856;28;20775;-84
2022/04/16 05:48:20;;;;;;;10.00;6.90;;;;;;;;;;5081761;28;20405;-84
2022/04/16 05:50:46;;;;;;;8.77;6.70;;;;;;;;;;5081062;28;20405;-84
2022/04/16 05:53:13;;;;;;;7.03;5.53;;;;;;;;;;5080329;28;20425;-83
2022/04/16 05:55:40;;;;;;;8.80;6.60;;;;;;;;;;5081844;28;20763;-84
2022/04/16 05:58:06;;;;;;;10.27;6.67;;;;;;;;;;5081264;28;20401;-84
2022/04/16 06:00:33;;;;;;;7.80;6.63;;;;;;;;;;5081770;28;20427;-84
2022/04/16 06:02:59;;;;;;;9.40;6.43;;;;;;;;;;5080294;28;20433;-84
2022/04/16 06:05:27;;;;;;;8.00;5.13;;;;;;;;;;5081348;28;20771;-84
2022/04/16 06:07:53;;;;;;;8.23;6.17;;;;;;;;;;5081634;28;20793;-84
2022/04/16 06:10:19;;;;;;;13.07;7.80;;;;;;;;;;5081104;28;20401;-84
2022/04/16 06:12:45;;;;;;;8.73;5.17;;;;;;;;;;5080835;28;20420;-84
2022/04/16 06:15:11;;;;;;;9.87;6.60;;;;;;;;;;5081285;28;20404;-84
2022/04/16 06:17:37;;;;;;;9.40;6.23;;;;;;;;;;5082317;28;20433;-83
2022/04/16 06:20:04;;;;;;;9.27;6.43;;;;;;;;;;5085293;28;20484;-84
2022/04/16 06:22:30;;;;;;;12.40;6.97;;;;;;;;;;5088033;28;20420;-83
2022/04/16 06:24:56;;;;;;;7.20;5.90;;;;;;;;;;5084144;28;20435;-83
2022/04/16 06:27:25;;;;;;;6.87;5.60;;;;;;;;;;5078868;28;20452;-83
2022/04/16 06:29:51;;;;;;;8.03;6.07;;;;;;;;;;5080705;28;20405;-83
2022/04/16 06:32:17;;;;;;;9.83;6.03;;;;;;;;;;5080435;28;20427;-83
2022/04/16 06:34:43;;;;;;;7.53;6.00;;;;;;;;;;5080692;28;20888;-83
2022/04/16 06:37:09;;;;;;;6.90;5.53;;;;;;;;;;5080492;28;20412;-83
2022/04/16 06:39:35;;;;;;;8.13;6.07;;;;;;;;;;5067842;28;20425;-83
2022/04/16 06:42:01;;;;;;;7.53;5.90;;;;;;;;;;5059978;28;20560;-81
2022/04/16 06:44:28;;;;;;;8.03;5.77;;;;;;;;;;5071330;28;20429;-82
2022/04/16 06:46:54;;;;;;;8.43;5.97;;;;;;;;;;5076733;28;20456;-83
2022/04/16 06:49:21;;;;;;;7.77;5.47;;;;;;;;;;5073811;28;20501;-82
2022/04/16 06:51:47;;;;;;;6.73;5.50;;;;;;;;;;5058227;28;20437;-82
2022/04/16 06:54:13;;;;;;;8.07;6.20;;;;;;;;;;5060101;28;20971;-83
2022/04/16 06:56:39;;;;;;;7.70;6.50;;;;;;;;;;5062121;28;20468;-82
2022/04/16 06:59:05;;;;;;;8.80;5.80;;;;;;;;;;5083406;28;20409;-83
2022/04/16 07:01:31;;;;;;;7.37;6.07;;;;;;;;;;5060186;28;20422;-82
2022/04/16 07:03:57;;;;;;;8.17;6.37;;;;;;;;;;5068691;28;20428;-81
2022/04/16 07:06:23;;;;;;;7.70;6.10;;;;;;;;;;5061263;28;20976;-81
2022/04/16 07:08:49;;;;;;;7.63;5.90;;;;;;;;;;5064252;28;20424;-83
2022/04/16 07:11:15;;;;;;;7.77;6.10;;;;;;;;;;5060089;28;20448;-83
2022/04/16 07:13:41;;;;;;;7.65;6.10;;;;;;;;;;5062187;28;20420;-81
2022/04/16 07:16:07;;;;;;;8.27;5.57;;;;;;;;;;5064374;28;20174;-82
2022/04/16 07:18:33;;;;;;;8.10;6.00;;;;;;;;;;5069903;28;20472;-80
2022/04/16 07:20:59;;;;;;;7.20;5.87;;;;;;;;;;5097804;28;20415;-81
2022/04/16 07:23:25;;;;;;;8.40;6.67;;;;;;;;;;5080925;28;20522;-83
2022/04/16 07:25:51;;;;;;;6.97;5.77;;;;;;;;;;5078187;28;20413;-81
2022/04/16 07:28:23;;;;;;;9.67;5.73;;;;;;;;;;5073263;28;20663;-81
2022/04/16 07:30:50;;;;;;;7.50;5.70;;;;;;;;;;5057303;28;20410;-82
2022/04/16 07:33:16;;;;;;;6.90;5.03;;;;;;;;;;5057835;28;20788;-82
2022/04/16 07:35:42;;;;;;;8.40;6.47;;;;;;;;;;5061860;28;20411;-82
2022/04/16 07:38:08;;;;;;;7.87;6.40;;;;;;;;;;5075085;28;20173;-82
2022/04/16 07:40:34;;;;;;;8.60;7.03;;;;;;;;;;5068709;28;20409;-84
2022/04/16 07:43:01;;;;;;;8.20;6.40;;;;;;;;;;5060031;28;20516;-83
2022/04/16 07:45:27;;;;;;;7.90;6.53;;;;;;;;;;5067489;28;20436;-84
2022/04/16 07:47:53;;;;;;;8.50;6.50;;;;;;;;;;5068968;28;20517;-84
2022/04/16 07:50:20;;;;;;;7.53;6.33;;;;;;;;;;5062704;28;20749;-83
2022/04/16 07:52:46;;;;;;;8.50;6.80;;;;;;;;;;5086510;28;20428;-83
2022/04/16 07:55:12;;;;;;;6.40;5.13;;;;;;;;;;5063722;28;20965;-81
2022/04/16 07:57:38;;;;;;;7.80;6.28;;;;;;;;;;5057998;28;20511;-81
2022/04/16 08:00:09;;;;;;;11.23;7.20;;;;;;;;;;5062420;28;20178;-81
2022/04/16 08:02:35;;;;;;;7.63;6.50;;;;;;;;;;5065255;28;20516;-82
2022/04/16 08:05:01;;;;;;;6.90;5.50;;;;;;;;;;5075669;28;20432;-81
2022/04/16 08:07:27;;;;;;;7.23;6.03;;;;;;;;;;5059181;28;20449;-80
2022/04/16 08:09:53;;;;;;;7.30;5.77;;;;;;;;;;5080462;28;20411;-80
2022/04/16 08:12:19;;;;;;;7.77;5.90;;;;;;;;;;5072749;28;20449;-82
2022/04/16 08:14:46;;;;;;;8.37;6.40;;;;;;;;;;5077693;28;20412;-84
2022/04/16 08:17:12;;;;;;;11.43;7.30;;;;;;;;;;5074154;28;20723;-82
2022/04/16 08:19:38;;;;;;;7.63;6.17;;;;;;;;;;5063538;28;20802;-83
2022/04/16 08:22:07;;;;;;;9.30;6.87;;;;;;;;;;5078604;28;20423;-82
2022/04/16 08:27:02;;;;;;;6.83;5.93;;;;;;;;;;5078800;28;20497;-83
2022/04/16 08:29:28;;;;;;;7.22;5.90;;;;;;;;;;5071707;28;20506;-82
2022/04/16 08:31:54;;;;;;;7.97;7.17;;;;;;;;;;5057185;28;20217;-82
2022/04/16 08:34:20;;;;;;;6.73;5.67;;;;;;;;;;5057686;28;20402;-83
2022/04/16 08:36:46;;;;;;;7.83;5.80;;;;;;;;;;5059909;28;20917;-82
2022/04/16 08:39:12;;;;;;;8.67;6.23;;;;;;;;;;5059013;28;20847;-82
2022/04/16 08:41:40;;;;;;;8.23;6.17;;;;;;;;;;5059816;28;20854;-81
2022/04/16 08:44:06;;;;;;;8.40;6.70;;;;;;;;;;5060754;28;20405;-81
2022/04/16 08:46:33;;;;;;;7.40;6.07;;;;;;;;;;5065423;28;20456;-81
2022/04/16 08:49:00;;;;;;;9.10;7.07;;;;;;;;;;5061380;28;20405;-80
2022/04/16 08:51:26;;;;;;;11.13;6.10;;;;;;;;;;5059572;28;20394;-82
2022/04/16 08:53:52;;;;;;;7.00;5.90;;;;;;;;;;5059981;28;20410;-83
2022/04/16 08:56:18;;;;;;;7.57;5.87;;;;;;;;;;5058627;28;20988;-83
2022/04/16 08:58:44;;;;;;;8.40;6.47;;;;;;;;;;5059295;28;20401;-82
2022/04/16 09:01:11;;;;;;;9.50;6.40;;;;;;;;;;5058406;28;20425;-82
2022/04/16 09:03:37;;;;;;;7.33;6.57;;;;;;;;;;5059751;28;20429;-82
2022/04/16 09:06:04;;;;;;;8.23;6.80;;;;;;;;;;5068172;28;20447;-82
2022/04/16 09:08:30;;;;;;;6.60;5.47;;;;;;;;;;5081236;28;20488;-82
2022/04/16 09:11:05;;;;;;;7.73;5.80;;;;;;;;;;5078105;28;20410;-81
2022/04/16 09:13:32;;;;;;;7.47;6.07;;;;;;;;;;5080345;28;20519;-81
2022/04/16 09:16:07;;;;;;;7.30;6.00;;;;;;;;;;5081862;28;20784;-81
2022/04/16 09:18:44;;;;;;;7.63;6.63;;;;;;;;;;5080701;28;20167;-81
2022/04/16 09:21:12;;;;;;;7.63;6.73;;;;;;;;;;5062511;28;20394;-82
2022/04/16 09:23:44;;;;;;;8.53;7.63;;;;;;;;;;5080652;28;20433;-81
2022/04/16 09:26:10;;;;;;;7.10;6.30;;;;;;;;;;5061805;28;20465;-81
2022/04/16 09:28:44;;;;;;;8.83;7.60;;;;;;;;;;5064342;28;20420;-82
2022/04/16 09:31:10;;;;;;;7.30;6.33;;;;;;;;;;5061292;28;20425;-83
2022/04/16 09:33:41;;;;;;;8.20;6.23;;;;;;;;;;5061160;28;20428;-82
2022/04/16 09:36:07;;;;;;;7.50;5.67;;;;;;;;;;5063116;28;20766;-82
2022/04/16 09:38:37;;;;;;;6.80;6.10;;;;;;;;;;5061596;28;20416;-83
2022/04/16 09:41:05;;;;;;;8.83;6.00;;;;;;;;;;5061026;28;20421;-82
2022/04/16 09:43:35;;;;;;;7.00;5.70;;;;;;;;;;5059839;28;20424;-82
2022/04/16 09:46:11;;;;;;;7.07;5.70;;;;;;;;;;5066856;28;20417;-82
2022/04/16 09:48:38;;;;;;;7.33;5.93;;;;;;;;;;5061328;28;20624;-82
2022/04/16 09:51:07;;;;;;;5.70;4.70;;;;;;;;;;5061683;28;20401;-82
2022/04/16 09:53:36;;;;;;;5.97;4.83;;;;;;;;;;5060083;28;20421;-83
2022/04/16 09:56:02;;;;;;;8.17;5.93;;;;;;;;;;5060614;28;20476;-83
2022/04/16 09:58:36;;;;;;;6.13;5.37;;;;;;;;;;5066265;28;20410;-83
2022/04/16 10:01:02;;;;;;;5.87;5.27;;;;;;;;;;5069993;28;20413;-83
2022/04/16 10:03:29;;;;;;;6.68;5.60;;;;;;;;;;5073157;28;20418;-84
2022/04/16 10:05:58;;;;;;;8.40;5.40;;;;;;;;;;5081028;28;20166;-83
2022/04/16 10:08:27;;;;;;;5.13;4.63;;;;;;;;;;5088380;28;20399;-82
2022/04/16 10:10:55;;;;;;;5.37;4.70;;;;;;;;;;5071827;28;20439;-84
2022/04/16 10:13:22;;;;;;;5.17;4.50;;;;;;;;;;5069882;28;20957;-83
2022/04/16 10:15:55;;;;;;;6.77;4.90;;;;;;;;;;5061317;28;20416;-83
2022/04/16 10:18:22;;;;;;;7.17;4.40;;;;;;;;;;5063890;28;20404;-84
2022/04/16 10:20:52;;;;;;;6.47;5.28;;;;;;;;;;5066535;28;20424;-81
2022/04/16 10:23:44;;;;;;;5.10;4.60;;;;;;;;;;5074293;28;20198;-81
2022/04/16 10:26:11;;;;;;;5.67;4.83;;;;;;;;;;5075924;28;20457;-83
2022/04/16 10:28:38;;;;;;;5.30;4.80;;;;;;;;;;5081825;28;20900;-82
2022/04/16 10:31:08;;;;;;;5.80;5.20;;;;;;;;;;5078962;28;20436;-82
2022/04/16 10:33:34;;;;;;;6.97;5.13;;;;;;;;;;5073642;28;20491;-82
2022/04/16 10:36:01;;;;;;;6.77;5.53;;;;;;;;;;5072748;28;20542;-84
2022/04/16 10:38:34;;;;;;;6.17;4.90;;;;;;;;;;5071339;28;20417;-82
2022/04/16 10:41:01;;;;;;;5.37;4.70;;;;;;;;;;5066196;28;20440;-83
2022/04/16 10:43:29;;;;;;;5.57;4.97;;;;;;;;;;5069827;28;20536;-83
2022/04/16 10:46:02;;;;;;;5.70;5.00;;;;;;;;;;5059390;28;20492;-82
2022/04/16 10:48:29;;;;;;;6.33;5.20;;;;;;;;;;5074985;28;20436;-81
2022/04/16 10:50:58;;;;;;;5.63;4.80;;;;;;;;;;5069968;28;20939;-82
2022/04/16 10:53:28;;;;;;;5.60;4.63;;;;;;;;;;5067693;28;20432;-83
2022/04/16 10:55:54;;;;;;;7.70;5.43;;;;;;;;;;5061500;28;20921;-83
2022/04/16 10:58:30;;;;;;;5.90;5.30;;;;;;;;;;5059510;28;20782;-82
2022/04/16 11:01:12;;;;;;;6.50;5.80;;;;;;;;;;5075431;28;20514;-83
2022/04/16 11:03:46;;;;;;;10.40;5.97;;;;;;;;;;5080397;28;20506;-81
2022/04/16 11:06:12;;;;;;;7.60;6.10;;;;;;;;;;5065069;28;20595;-81
2022/04/16 11:08:38;;;;;;;8.40;6.87;;;;;;;;;;5088934;28;20444;-81
2022/04/16 11:11:05;;;;;;;14.30;7.73;;;;;;;;;;5065746;28;20762;-83
2022/04/16 11:13:37;;;;;;;6.87;6.17;;;;;;;;;;5074560;28;20424;-83
2022/04/16 11:16:04;;;;;;;10.97;7.87;;;;;;;;;;5070303;28;20438;-83
2022/04/16 11:18:43;;;;;;;8.63;7.73;;;;;;;;;;5070579;28;20415;-83
2022/04/16 11:21:12;;;;;;;9.87;7.07;;;;;;;;;;5091571;28;20471;-81
2022/04/16 11:23:43;;;;;;;8.07;6.70;;;;;;;;;;5089675;28;20465;-82
2022/04/16 11:34:31;;;;;;;6.03;5.43;;;;;;;;;;5072602;28;20929;-84
2022/04/16 11:36:58;;;;;;;6.43;5.20;;;;;;;;;;5071642;28;20424;-84
2022/04/16 11:39:31;;;;;;;5.47;4.83;;;;;;;;;;5059816;28;20480;-84
2022/04/16 11:41:59;;;;;;;6.47;5.20;;;;;;;;;;5059318;28;20818;-82
2022/04/16 11:44:38;;;;;;;7.40;6.17;;;;;;;;;;5063040;28;20412;-83
2022/04/16 11:47:06;;;;;;;6.20;4.90;;;;;;;;;;5061615;28;20457;-82
2022/04/16 11:49:32;;;;;;;6.43;5.10;;;;;;;;;;5058771;28;20920;-82
2022/04/16 11:51:59;;;;;;;7.53;6.17;;;;;;;;;;5062716;28;20448;-81
2022/04/16 11:54:28;;;;;;;8.37;6.10;;;;;;;;;;5077515;28;20504;-83
2022/04/16 11:56:58;;;;;;;7.13;5.77;;;;;;;;;;5077356;28;20921;-82
2022/04/16 11:59:24;;;;;;;6.63;5.77;;;;;;;;;;5060279;28;20401;-83
2022/04/16 12:02:16;;;;;;;7.00;4.97;;;;;;;;;;5074649;28;20952;-83
2022/04/16 12:04:43;;;;;;;5.87;5.20;;;;;;;;;;5058537;28;20975;-82
2022/04/16 12:07:18;;;;;;;6.77;5.70;;;;;;;;;;5074201;28;20452;-81
2022/04/16 12:09:48;;;;;;;8.73;5.97;;;;;;;;;;5058813;28;20411;-82
2022/04/16 12:12:18;;;;;;;6.93;5.80;;;;;;;;;;5067030;28;20430;-83
2022/04/16 12:14:49;;;;;;;7.97;6.60;;;;;;;;;;5067022;28;20497;-82
2022/04/16 12:17:29;;;;;;;7.87;6.73;;;;;;;;;;5061813;28;20546;-83
2022/04/16 12:20:01;;;;;;;10.73;8.60;;;;;;;;;;5076458;28;20484;-83
2022/04/16 12:22:28;;;;;;;12.80;9.33;;;;;;;;;;5074413;28;20512;-81
2022/04/16 12:24:54;;;;;;;13.93;10.13;;;;;;;;;;5058228;28;20404;-83
2022/04/16 12:27:29;;;;;;;15.00;10.30;;;;;;;;;;5057557;28;20453;-83
2022/04/16 12:29:56;;;;;;;13.30;9.87;;;;;;;;;;5075872;28;20420;-84
2022/04/16 12:32:28;;;;;;;13.10;9.40;;;;;;;;;;5067187;28;20440;-84
2022/04/16 12:34:54;;;;;;;14.20;11.17;;;;;;;;;;5058176;28;20968;-80
2022/04/16 12:37:21;;;;;;;13.83;9.80;;;;;;;;;;5081070;28;20432;-79
2022/04/16 12:39:49;;;;;;;11.07;9.10;;;;;;;;;;5078324;28;20447;-82
2022/04/16 12:42:15;;;;;;;11.33;9.10;;;;;;;;;;5075349;28;20994;-84
2022/04/16 12:44:41;;;;;;;12.30;9.50;;;;;;;;;;5083334;28;20411;-83
2022/04/16 12:47:07;;;;;;;10.63;8.87;;;;;;;;;;5078354;28;20459;-84
2022/04/16 12:49:33;;;;;;;11.55;8.95;;;;;;;;;;5080636;28;20443;-84
2022/04/16 12:51:59;;;;;;;10.80;8.90;;;;;;;;;;5082259;28;20578;-84
2022/04/16 12:54:26;;;;;;;13.85;8.93;;;;;;;;;;5081888;28;20454;-83
2022/04/16 12:56:52;;;;;;;10.87;9.47;;;;;;;;;;5080771;28;20174;-85
2022/04/16 12:59:18;;;;;;;12.00;9.10;;;;;;;;;;5081383;28;20515;-85
2022/04/16 13:01:44;;;;;;;10.43;8.10;;;;;;;;;;5083305;28;20420;-84
2022/04/16 13:04:10;;;;;;;10.73;8.73;;;;;;;;;;5083916;28;20818;-84
2022/04/16 13:06:36;;;;;;;9.20;6.90;;;;;;;;;;5082938;28;20452;-84
2022/04/16 13:09:02;;;;;;;7.70;6.37;;;;;;;;;;5083504;28;20431;-85
2022/04/16 13:11:29;;;;;;;8.40;6.80;;;;;;;;;;5083563;28;20462;-84
2022/04/16 13:13:55;;;;;;;7.80;5.87;;;;;;;;;;5082878;28;20405;-85
2022/04/16 13:16:21;;;;;;;7.27;5.90;;;;;;;;;;5082447;28;20397;-84
2022/04/16 13:18:50;;;;;;;8.27;6.53;;;;;;;;;;5080114;28;20492;-83
2022/04/16 13:21:16;;;;;;;9.00;6.60;;;;;;;;;;5062455;28;20409;-84
2022/04/16 13:23:43;;;;;;;12.00;5.73;;;;;;;;;;5061134;28;20467;-83
2022/04/16 13:26:09;;;;;;;9.80;6.97;;;;;;;;;;5062623;28;20929;-85
2022/04/16 13:28:35;;;;;;;10.03;8.33;;;;;;;;;;5069887;28;20834;-84
2022/04/16 13:31:01;;;;;;;12.10;9.20;;;;;;;;;;5066641;28;20424;-83
2022/04/16 13:33:28;;;;;;;12.13;9.20;;;;;;;;;;5061036;28;20948;-84
2022/04/16 13:35:54;;;;;;;8.73;7.80;;;;;;;;;;5066670;28;20412;-83
2022/04/16 13:38:20;;;;;;;8.60;7.30;;;;;;;;;;5080555;28;20406;-83
2022/04/16 13:43:31;;;;;;;8.93;6.33;;;;;;;;;;5070969;28;20443;-82
2022/04/16 13:45:57;;;;;;;12.10;7.50;;;;;;;;;;5068215;28;20426;-81
2022/04/16 13:48:25;;;;;;;8.83;7.57;;;;;;;;;;5058126;28;20409;-82
2022/04/16 13:50:51;;;;;;;7.00;6.10;;;;;;;;;;5061933;28;20500;-82
2022/04/16 13:53:17;;;;;;;6.80;6.10;;;;;;;;;;5070148;28;20434;-84
2022/04/16 13:55:43;;;;;;;8.60;5.27;;;;;;;;;;5061410;28;20472;-83
2022/04/16 13:58:09;;;;;;;7.40;6.03;;;;;;;;;;5064590;28;20871;-82
2022/04/16 14:00:36;;;;;;;5.30;4.60;;;;;;;;;;5063071;28;20535;-83
2022/04/16 14:03:02;;;;;;;8.10;6.23;;;;;;;;;;5059560;28;20528;-83
2022/04/16 14:05:43;;;;;;;8.20;5.77;;;;;;;;;;5066647;28;20932;-84
2022/04/16 14:08:09;;;;;;;6.90;6.20;;;;;;;;;;5091041;28;20466;-82
2022/04/16 14:10:35;;;;;;;6.60;5.63;;;;;;;;;;5085584;28;20401;-84
2022/04/16 14:13:01;;;;;;;6.70;5.20;;;;;;;;;;5068695;28;20445;-84
2022/04/16 14:15:28;;;;;;;7.30;5.77;;;;;;;;;;5060851;28;20432;-84
2022/04/16 14:17:54;;;;;;;5.67;5.00;;;;;;;;;;5060354;28;20398;-84
2022/04/16 14:20:20;;;;;;;6.43;5.22;;;;;;;;;;5060742;28;20444;-83
2022/04/16 14:22:46;;;;;;;7.57;5.40;;;;;;;;;;5076803;28;20212;-84
2022/04/16 14:25:14;;;;;;;5.87;4.67;;;;;;;;;;5078331;28;20428;-84
2022/04/16 14:27:41;;;;;;;6.00;4.90;;;;;;;;;;5065704;28;20853;-83
2022/04/16 14:30:07;;;;;;;5.90;4.93;;;;;;;;;;5060671;28;20958;-83
2022/04/16 14:32:33;;;;;;;5.30;4.67;;;;;;;;;;5061053;28;20436;-84
2022/04/16 14:34:59;;;;;;;6.40;5.10;;;;;;;;;;5061180;28;20504;-84
2022/04/16 14:37:26;;;;;;;6.97;5.77;;;;;;;;;;5059353;28;20414;-83
2022/04/16 14:39:52;;;;;;;6.10;5.10;;;;;;;;;;5062032;28;20505;-84
2022/04/16 14:42:18;;;;;;;5.77;4.80;;;;;;;;;;5067412;28;20444;-84
2022/04/16 14:44:51;;;;;;;5.20;4.63;;;;;;;;;;5068265;28;20402;-83
2022/04/16 14:47:18;;;;;;;7.17;6.00;;;;;;;;;;5060065;28;20460;-84
2022/04/16 14:49:44;;;;;;;4.60;3.73;;;;;;;;;;5080777;28;20893;-83
2022/04/16 14:52:11;;;;;;;5.90;4.13;;;;;;;;;;5065413;28;20425;-85
2022/04/16 14:54:37;;;;;;;6.43;4.90;;;;;;;;;;5074632;28;20390;-84
2022/04/16 14:57:04;;;;;;;4.97;4.27;;;;;;;;;;5060780;28;20769;-84
2022/04/16 14:59:30;;;;;;;4.53;3.97;;;;;;;;;;5061001;28;20425;-85
2022/04/16 15:01:56;;;;;;;4.50;4.03;;;;;;;;;;5078509;28;20758;-84
2022/04/16 15:04:23;;;;;;;4.17;3.67;;;;;;;;;;5062058;28;20413;-82
2022/04/16 15:06:49;;;;;;;7.30;4.70;;;;;;;;;;5068989;28;20522;-82
2022/04/16 15:09:15;;;;;;;4.35;3.78;;;;;;;;;;5077170;28;20384;-82
2022/04/16 15:11:41;;;;;;;4.77;3.90;;;;;;;;;;5085349;28;20248;-84